sensor_id;sensor_type;location;lat;lon;timestamp;P1;durP1;ratioP1;P2;durP2;ratioP2
39936;SDS011;27803;42.740;23.340;2022-12-07T00:01:32;29.40;;;17.37;;
39936;SDS011;27803;42.740;23.340;2022-12-07T00:04:00;26.10;;;17.70;;
39936;SDS011;27803;42.740;23.340;2022-12-07T00:06:33;25.10;;;16.20;;
39936;SDS011;27803;42.740;23.340;2022-12-07T00:09:01;24.73;;;17.07;;
39936;SDS011;27803;42.740;23.340;2022-12-07T00:11:28;25.20;;;16.37;;
39936;SDS011;27803;42.740;23.340;2022-12-07T00:13:54;28.63;;;17.57;;
39936;SDS011;27803;42.740;23.340;2022-12-07T00:16:24;28.93;;;17.50;;
39936;SDS011;27803;42.740;23.340;2022-12-07T00:18:52;25.63;;;17.60;;
39936;SDS011;27803;42.740;23.340;2022-12-07T00:21:19;26.90;;;17.90;;
39936;SDS011;27803;42.740;23.340;2022-12-07T00:23:49;25.77;;;17.03;;
39936;SDS011;27803;42.740;23.340;2022-12-07T00:28:46;26.10;;;17.00;;
39936;SDS011;27803;42.740;23.340;2022-12-07T00:31:12;24.80;;;16.10;;
39936;SDS011;27803;42.740;23.340;2022-12-07T00:33:39;27.03;;;16.80;;
39936;SDS011;27803;42.740;23.340;2022-12-07T00:36:06;25.60;;;16.33;;
39936;SDS011;27803;42.740;23.340;2022-12-07T00:38:34;25.37;;;15.70;;
39936;SDS011;27803;42.740;23.340;2022-12-07T00:41:02;26.03;;;16.27;;
39936;SDS011;27803;42.740;23.340;2022-12-07T00:43:34;24.23;;;16.20;;
39936;SDS011;27803;42.740;23.340;2022-12-07T00:45:59;26.43;;;16.60;;
39936;SDS011;27803;42.740;23.340;2022-12-07T00:48:25;23.13;;;16.73;;
39936;SDS011;27803;42.740;23.340;2022-12-07T00:50:51;25.33;;;16.50;;
39936;SDS011;27803;42.740;23.340;2022-12-07T00:53:16;24.60;;;16.40;;
39936;SDS011;27803;42.740;23.340;2022-12-07T00:55:43;30.40;;;20.70;;
39936;SDS011;27803;42.740;23.340;2022-12-07T00:58:08;26.73;;;18.93;;
39936;SDS011;27803;42.740;23.340;2022-12-07T01:00:37;28.90;;;19.27;;
39936;SDS011;27803;42.740;23.340;2022-12-07T01:03:04;32.33;;;21.83;;
39936;SDS011;27803;42.740;23.340;2022-12-07T01:05:31;27.87;;;18.20;;
39936;SDS011;27803;42.740;23.340;2022-12-07T01:07:56;26.30;;;17.17;;
39936;SDS011;27803;42.740;23.340;2022-12-07T01:10:22;37.30;;;23.93;;
39936;SDS011;27803;42.740;23.340;2022-12-07T01:12:47;39.13;;;26.27;;
39936;SDS011;27803;42.740;23.340;2022-12-07T01:15:13;34.80;;;21.03;;
39936;SDS011;27803;42.740;23.340;2022-12-07T01:17:38;27.07;;;19.20;;
39936;SDS011;27803;42.740;23.340;2022-12-07T01:20:04;30.87;;;18.50;;
39936;SDS011;27803;42.740;23.340;2022-12-07T01:22:30;27.47;;;17.70;;
39936;SDS011;27803;42.740;23.340;2022-12-07T01:24:55;23.87;;;17.30;;
39936;SDS011;27803;42.740;23.340;2022-12-07T01:27:20;25.50;;;18.67;;
39936;SDS011;27803;42.740;23.340;2022-12-07T01:29:46;26.10;;;17.70;;
39936;SDS011;27803;42.740;23.340;2022-12-07T01:32:11;26.93;;;18.80;;
39936;SDS011;27803;42.740;23.340;2022-12-07T01:34:37;48.37;;;33.70;;
39936;SDS011;27803;42.740;23.340;2022-12-07T01:37:02;42.00;;;28.70;;
39936;SDS011;27803;42.740;23.340;2022-12-07T01:39:28;29.53;;;19.20;;
39936;SDS011;27803;42.740;23.340;2022-12-07T01:41:53;31.63;;;18.77;;
39936;SDS011;27803;42.740;23.340;2022-12-07T01:46:45;71.80;;;38.03;;
39936;SDS011;27803;42.740;23.340;2022-12-07T01:49:18;62.83;;;34.63;;
39936;SDS011;27803;42.740;23.340;2022-12-07T01:51:46;49.70;;;28.10;;
39936;SDS011;27803;42.740;23.340;2022-12-07T01:54:13;38.33;;;21.37;;
39936;SDS011;27803;42.740;23.340;2022-12-07T01:56:42;29.87;;;19.00;;
39936;SDS011;27803;42.740;23.340;2022-12-07T01:59:14;41.27;;;24.37;;
39936;SDS011;27803;42.740;23.340;2022-12-07T02:01:41;28.43;;;18.20;;
39936;SDS011;27803;42.740;23.340;2022-12-07T02:04:06;30.27;;;18.33;;
39936;SDS011;27803;42.740;23.340;2022-12-07T02:06:32;30.07;;;18.53;;
39936;SDS011;27803;42.740;23.340;2022-12-07T02:09:00;30.80;;;17.90;;
39936;SDS011;27803;42.740;23.340;2022-12-07T02:11:25;25.13;;;16.73;;
39936;SDS011;27803;42.740;23.340;2022-12-07T02:13:51;24.57;;;16.77;;
39936;SDS011;27803;42.740;23.340;2022-12-07T02:22:16;28.97;;;16.97;;
39936;SDS011;27803;42.740;23.340;2022-12-07T02:25:14;30.63;;;19.33;;
39936;SDS011;27803;42.740;23.340;2022-12-07T02:30:35;41.43;;;25.20;;
39936;SDS011;27803;42.740;23.340;2022-12-07T02:33:18;35.23;;;21.87;;
39936;SDS011;27803;42.740;23.340;2022-12-07T02:35:54;32.23;;;20.00;;
39936;SDS011;27803;42.740;23.340;2022-12-07T02:40:53;43.43;;;24.13;;
39936;SDS011;27803;42.740;23.340;2022-12-07T02:43:26;28.43;;;18.87;;
39936;SDS011;27803;42.740;23.340;2022-12-07T02:45:57;26.70;;;18.07;;
39936;SDS011;27803;42.740;23.340;2022-12-07T02:48:26;29.17;;;18.27;;
39936;SDS011;27803;42.740;23.340;2022-12-07T02:50:53;27.87;;;18.43;;
39936;SDS011;27803;42.740;23.340;2022-12-07T02:53:38;26.20;;;16.90;;
39936;SDS011;27803;42.740;23.340;2022-12-07T02:56:07;29.33;;;18.53;;
39936;SDS011;27803;42.740;23.340;2022-12-07T03:04:14;26.00;;;18.03;;
39936;SDS011;27803;42.740;23.340;2022-12-07T03:07:05;27.70;;;17.27;;
39936;SDS011;27803;42.740;23.340;2022-12-07T03:09:45;32.07;;;18.23;;
39936;SDS011;27803;42.740;23.340;2022-12-07T03:12:29;48.27;;;31.80;;
39936;SDS011;27803;42.740;23.340;2022-12-07T03:15:10;43.13;;;28.50;;
39936;SDS011;27803;42.740;23.340;2022-12-07T03:17:40;32.43;;;23.20;;
39936;SDS011;27803;42.740;23.340;2022-12-07T03:20:09;30.63;;;21.17;;
39936;SDS011;27803;42.740;23.340;2022-12-07T03:22:38;31.27;;;19.50;;
39936;SDS011;27803;42.740;23.340;2022-12-07T03:25:08;38.43;;;25.73;;
39936;SDS011;27803;42.740;23.340;2022-12-07T03:27:42;63.63;;;33.40;;
39936;SDS011;27803;42.740;23.340;2022-12-07T03:30:15;56.70;;;31.60;;
39936;SDS011;27803;42.740;23.340;2022-12-07T03:32:45;62.87;;;38.20;;
39936;SDS011;27803;42.740;23.340;2022-12-07T03:38:16;33.30;;;20.60;;
39936;SDS011;27803;42.740;23.340;2022-12-07T03:43:11;30.87;;;19.30;;
39936;SDS011;27803;42.740;23.340;2022-12-07T03:50:41;36.83;;;23.03;;
39936;SDS011;27803;42.740;23.340;2022-12-07T03:53:20;109.40;;;53.03;;
39936;SDS011;27803;42.740;23.340;2022-12-07T03:55:52;37.37;;;20.83;;
39936;SDS011;27803;42.740;23.340;2022-12-07T03:58:20;27.07;;;17.10;;
39936;SDS011;27803;42.740;23.340;2022-12-07T04:00:48;26.17;;;16.90;;
39936;SDS011;27803;42.740;23.340;2022-12-07T04:03:15;24.60;;;15.97;;
39936;SDS011;27803;42.740;23.340;2022-12-07T04:05:40;26.20;;;17.07;;
39936;SDS011;27803;42.740;23.340;2022-12-07T04:08:06;24.33;;;14.97;;
39936;SDS011;27803;42.740;23.340;2022-12-07T04:10:32;36.60;;;20.50;;
39936;SDS011;27803;42.740;23.340;2022-12-07T04:12:57;115.80;;;58.97;;
39936;SDS011;27803;42.740;23.340;2022-12-07T04:15:23;39.13;;;21.80;;
39936;SDS011;27803;42.740;23.340;2022-12-07T04:17:48;38.67;;;21.83;;
39936;SDS011;27803;42.740;23.340;2022-12-07T04:20:13;31.97;;;19.07;;
39936;SDS011;27803;42.740;23.340;2022-12-07T04:22:39;29.60;;;18.60;;
39936;SDS011;27803;42.740;23.340;2022-12-07T04:25:05;30.67;;;18.80;;
39936;SDS011;27803;42.740;23.340;2022-12-07T04:27:30;30.47;;;18.90;;
39936;SDS011;27803;42.740;23.340;2022-12-07T04:29:56;30.07;;;19.20;;
39936;SDS011;27803;42.740;23.340;2022-12-07T04:32:22;38.70;;;21.27;;
39936;SDS011;27803;42.740;23.340;2022-12-07T04:34:48;31.43;;;18.63;;
39936;SDS011;27803;42.740;23.340;2022-12-07T04:37:13;29.33;;;18.90;;
39936;SDS011;27803;42.740;23.340;2022-12-07T04:39:38;28.73;;;18.73;;
39936;SDS011;27803;42.740;23.340;2022-12-07T04:42:04;30.67;;;18.80;;
39936;SDS011;27803;42.740;23.340;2022-12-07T04:44:30;31.87;;;19.17;;
39936;SDS011;27803;42.740;23.340;2022-12-07T04:46:56;34.40;;;20.70;;
39936;SDS011;27803;42.740;23.340;2022-12-07T04:49:22;41.67;;;24.23;;
39936;SDS011;27803;42.740;23.340;2022-12-07T04:51:48;30.77;;;19.70;;
39936;SDS011;27803;42.740;23.340;2022-12-07T04:54:14;35.67;;;22.23;;
39936;SDS011;27803;42.740;23.340;2022-12-07T04:56:41;30.40;;;20.10;;
39936;SDS011;27803;42.740;23.340;2022-12-07T04:59:06;44.13;;;25.20;;
39936;SDS011;27803;42.740;23.340;2022-12-07T05:01:32;43.80;;;27.40;;
39936;SDS011;27803;42.740;23.340;2022-12-07T05:03:58;33.67;;;20.17;;
39936;SDS011;27803;42.740;23.340;2022-12-07T05:06:24;32.67;;;19.80;;
39936;SDS011;27803;42.740;23.340;2022-12-07T05:08:50;49.63;;;28.60;;
39936;SDS011;27803;42.740;23.340;2022-12-07T05:11:15;36.47;;;21.90;;
39936;SDS011;27803;42.740;23.340;2022-12-07T05:13:59;34.23;;;20.40;;
39936;SDS011;27803;42.740;23.340;2022-12-07T05:16:26;39.53;;;22.93;;
39936;SDS011;27803;42.740;23.340;2022-12-07T05:18:51;32.77;;;20.40;;
39936;SDS011;27803;42.740;23.340;2022-12-07T05:21:17;33.67;;;20.93;;
39936;SDS011;27803;42.740;23.340;2022-12-07T05:23:42;107.53;;;58.10;;
39936;SDS011;27803;42.740;23.340;2022-12-07T05:26:08;55.90;;;32.30;;
39936;SDS011;27803;42.740;23.340;2022-12-07T05:28:33;37.87;;;23.30;;
39936;SDS011;27803;42.740;23.340;2022-12-07T05:30:59;35.40;;;20.07;;
39936;SDS011;27803;42.740;23.340;2022-12-07T05:33:24;31.43;;;20.87;;
39936;SDS011;27803;42.740;23.340;2022-12-07T05:35:49;32.17;;;20.23;;
39936;SDS011;27803;42.740;23.340;2022-12-07T05:38:15;30.33;;;19.23;;
39936;SDS011;27803;42.740;23.340;2022-12-07T05:40:40;32.27;;;20.70;;
39936;SDS011;27803;42.740;23.340;2022-12-07T05:43:05;29.73;;;20.50;;
39936;SDS011;27803;42.740;23.340;2022-12-07T05:45:31;36.03;;;20.63;;
39936;SDS011;27803;42.740;23.340;2022-12-07T05:47:56;38.63;;;21.47;;
39936;SDS011;27803;42.740;23.340;2022-12-07T05:50:22;33.70;;;20.77;;
39936;SDS011;27803;42.740;23.340;2022-12-07T05:52:47;37.77;;;21.57;;
39936;SDS011;27803;42.740;23.340;2022-12-07T05:55:12;35.87;;;23.40;;
39936;SDS011;27803;42.740;23.340;2022-12-07T05:57:38;41.83;;;23.57;;
39936;SDS011;27803;42.740;23.340;2022-12-07T06:00:04;343.97;;;171.17;;
39936;SDS011;27803;42.740;23.340;2022-12-07T06:02:30;92.80;;;52.50;;
39936;SDS011;27803;42.740;23.340;2022-12-07T06:04:55;68.37;;;41.50;;
39936;SDS011;27803;42.740;23.340;2022-12-07T06:07:20;36.07;;;22.30;;
39936;SDS011;27803;42.740;23.340;2022-12-07T06:09:46;39.07;;;23.47;;
39936;SDS011;27803;42.740;23.340;2022-12-07T06:12:11;40.47;;;24.57;;
39936;SDS011;27803;42.740;23.340;2022-12-07T06:14:57;65.27;;;41.97;;
39936;SDS011;27803;42.740;23.340;2022-12-07T06:17:23;205.50;;;112.97;;
39936;SDS011;27803;42.740;23.340;2022-12-07T06:19:49;60.07;;;33.83;;
39936;SDS011;27803;42.740;23.340;2022-12-07T06:22:14;67.67;;;36.00;;
39936;SDS011;27803;42.740;23.340;2022-12-07T06:24:41;46.30;;;26.53;;
39936;SDS011;27803;42.740;23.340;2022-12-07T06:27:06;36.93;;;22.13;;
39936;SDS011;27803;42.740;23.340;2022-12-07T06:29:32;43.27;;;23.87;;
39936;SDS011;27803;42.740;23.340;2022-12-07T06:31:58;37.73;;;23.20;;
39936;SDS011;27803;42.740;23.340;2022-12-07T06:34:24;36.37;;;22.23;;
39936;SDS011;27803;42.740;23.340;2022-12-07T06:36:50;40.20;;;24.20;;
39936;SDS011;27803;42.740;23.340;2022-12-07T06:39:18;37.20;;;22.90;;
39936;SDS011;27803;42.740;23.340;2022-12-07T06:41:45;33.90;;;21.73;;
39936;SDS011;27803;42.740;23.340;2022-12-07T06:44:11;36.23;;;23.33;;
39936;SDS011;27803;42.740;23.340;2022-12-07T06:46:37;34.63;;;22.07;;
39936;SDS011;27803;42.740;23.340;2022-12-07T06:49:02;41.13;;;23.13;;
39936;SDS011;27803;42.740;23.340;2022-12-07T06:51:29;34.93;;;22.63;;
39936;SDS011;27803;42.740;23.340;2022-12-07T06:53:55;34.27;;;22.70;;
39936;SDS011;27803;42.740;23.340;2022-12-07T06:56:20;33.87;;;21.90;;
39936;SDS011;27803;42.740;23.340;2022-12-07T06:58:46;36.80;;;23.40;;
39936;SDS011;27803;42.740;23.340;2022-12-07T07:01:12;37.23;;;22.60;;
39936;SDS011;27803;42.740;23.340;2022-12-07T07:03:38;38.63;;;23.27;;
39936;SDS011;27803;42.740;23.340;2022-12-07T07:06:04;36.00;;;22.37;;
39936;SDS011;27803;42.740;23.340;2022-12-07T07:08:30;34.73;;;21.70;;
39936;SDS011;27803;42.740;23.340;2022-12-07T07:10:56;33.87;;;21.47;;
39936;SDS011;27803;42.740;23.340;2022-12-07T07:13:21;34.13;;;22.20;;
39936;SDS011;27803;42.740;23.340;2022-12-07T07:15:47;39.80;;;24.10;;
39936;SDS011;27803;42.740;23.340;2022-12-07T07:18:12;39.07;;;24.17;;
39936;SDS011;27803;42.740;23.340;2022-12-07T07:20:37;36.00;;;23.20;;
39936;SDS011;27803;42.740;23.340;2022-12-07T07:23:03;35.53;;;24.50;;
39936;SDS011;27803;42.740;23.340;2022-12-07T07:25:29;35.60;;;23.50;;
39936;SDS011;27803;42.740;23.340;2022-12-07T07:27:54;34.23;;;23.17;;
39936;SDS011;27803;42.740;23.340;2022-12-07T07:30:20;47.83;;;24.90;;
39936;SDS011;27803;42.740;23.340;2022-12-07T07:32:45;39.50;;;24.40;;
39936;SDS011;27803;42.740;23.340;2022-12-07T07:35:11;36.20;;;23.17;;
39936;SDS011;27803;42.740;23.340;2022-12-07T07:37:36;32.17;;;22.40;;
39936;SDS011;27803;42.740;23.340;2022-12-07T07:40:02;35.77;;;23.23;;
39936;SDS011;27803;42.740;23.340;2022-12-07T07:42:27;39.43;;;24.73;;
39936;SDS011;27803;42.740;23.340;2022-12-07T07:44:52;40.70;;;26.57;;
39936;SDS011;27803;42.740;23.340;2022-12-07T07:47:18;40.87;;;25.33;;
39936;SDS011;27803;42.740;23.340;2022-12-07T07:49:43;43.33;;;27.43;;
39936;SDS011;27803;42.740;23.340;2022-12-07T07:52:09;41.53;;;24.97;;
39936;SDS011;27803;42.740;23.340;2022-12-07T07:54:35;40.43;;;24.37;;
39936;SDS011;27803;42.740;23.340;2022-12-07T07:57:00;39.90;;;26.60;;
39936;SDS011;27803;42.740;23.340;2022-12-07T07:59:26;40.17;;;26.27;;
39936;SDS011;27803;42.740;23.340;2022-12-07T08:01:51;48.27;;;27.83;;
39936;SDS011;27803;42.740;23.340;2022-12-07T08:04:16;64.17;;;30.57;;
39936;SDS011;27803;42.740;23.340;2022-12-07T08:06:42;51.93;;;28.63;;
39936;SDS011;27803;42.740;23.340;2022-12-07T08:09:07;47.40;;;28.93;;
39936;SDS011;27803;42.740;23.340;2022-12-07T08:11:34;51.53;;;34.17;;
39936;SDS011;27803;42.740;23.340;2022-12-07T08:14:01;49.97;;;30.90;;
39936;SDS011;27803;42.740;23.340;2022-12-07T08:16:26;58.97;;;33.90;;
39936;SDS011;27803;42.740;23.340;2022-12-07T08:18:51;42.17;;;28.30;;
39936;SDS011;27803;42.740;23.340;2022-12-07T08:21:17;42.07;;;27.70;;
39936;SDS011;27803;42.740;23.340;2022-12-07T08:23:42;40.67;;;27.13;;
39936;SDS011;27803;42.740;23.340;2022-12-07T08:26:09;42.10;;;27.23;;
39936;SDS011;27803;42.740;23.340;2022-12-07T08:28:37;63.43;;;39.37;;
39936;SDS011;27803;42.740;23.340;2022-12-07T08:31:04;47.30;;;28.07;;
39936;SDS011;27803;42.740;23.340;2022-12-07T08:33:31;49.37;;;29.17;;
39936;SDS011;27803;42.740;23.340;2022-12-07T08:36:04;44.13;;;28.43;;
39936;SDS011;27803;42.740;23.340;2022-12-07T08:38:32;44.47;;;26.63;;
39936;SDS011;27803;42.740;23.340;2022-12-07T08:40:58;47.63;;;27.53;;
39936;SDS011;27803;42.740;23.340;2022-12-07T08:43:24;43.50;;;27.77;;
39936;SDS011;27803;42.740;23.340;2022-12-07T08:45:51;44.70;;;30.37;;
39936;SDS011;27803;42.740;23.340;2022-12-07T08:48:28;48.60;;;28.80;;
39936;SDS011;27803;42.740;23.340;2022-12-07T08:50:55;47.03;;;27.93;;
39936;SDS011;27803;42.740;23.340;2022-12-07T08:53:21;40.03;;;25.77;;
39936;SDS011;27803;42.740;23.340;2022-12-07T08:55:47;41.03;;;25.43;;
39936;SDS011;27803;42.740;23.340;2022-12-07T08:58:13;37.53;;;23.83;;
39936;SDS011;27803;42.740;23.340;2022-12-07T09:00:39;37.17;;;23.90;;
39936;SDS011;27803;42.740;23.340;2022-12-07T09:03:04;36.43;;;24.10;;
39936;SDS011;27803;42.740;23.340;2022-12-07T09:05:30;41.67;;;23.67;;
39936;SDS011;27803;42.740;23.340;2022-12-07T09:07:57;42.30;;;24.50;;
39936;SDS011;27803;42.740;23.340;2022-12-07T09:10:26;43.97;;;26.80;;
39936;SDS011;27803;42.740;23.340;2022-12-07T09:12:52;44.60;;;27.77;;
39936;SDS011;27803;42.740;23.340;2022-12-07T09:15:17;43.27;;;26.63;;
39936;SDS011;27803;42.740;23.340;2022-12-07T09:17:43;34.70;;;22.67;;
39936;SDS011;27803;42.740;23.340;2022-12-07T09:20:08;45.37;;;27.70;;
39936;SDS011;27803;42.740;23.340;2022-12-07T09:22:34;51.27;;;31.03;;
39936;SDS011;27803;42.740;23.340;2022-12-07T09:25:00;49.87;;;30.23;;
39936;SDS011;27803;42.740;23.340;2022-12-07T09:27:27;40.73;;;24.67;;
39936;SDS011;27803;42.740;23.340;2022-12-07T09:29:52;40.23;;;24.63;;
39936;SDS011;27803;42.740;23.340;2022-12-07T09:32:18;36.63;;;21.67;;
39936;SDS011;27803;42.740;23.340;2022-12-07T09:34:43;30.47;;;20.10;;
39936;SDS011;27803;42.740;23.340;2022-12-07T09:37:09;33.20;;;21.33;;
39936;SDS011;27803;42.740;23.340;2022-12-07T09:39:34;35.13;;;22.13;;
39936;SDS011;27803;42.740;23.340;2022-12-07T09:42:03;33.27;;;21.40;;
39936;SDS011;27803;42.740;23.340;2022-12-07T09:44:30;30.90;;;20.53;;
39936;SDS011;27803;42.740;23.340;2022-12-07T09:46:56;31.07;;;21.80;;
39936;SDS011;27803;42.740;23.340;2022-12-07T09:49:23;39.00;;;22.57;;
39936;SDS011;27803;42.740;23.340;2022-12-07T09:52:01;36.30;;;21.83;;
39936;SDS011;27803;42.740;23.340;2022-12-07T09:54:27;39.43;;;23.50;;
39936;SDS011;27803;42.740;23.340;2022-12-07T09:56:54;32.37;;;21.50;;
39936;SDS011;27803;42.740;23.340;2022-12-07T09:59:20;33.23;;;21.47;;
39936;SDS011;27803;42.740;23.340;2022-12-07T10:01:46;32.33;;;20.30;;
39936;SDS011;27803;42.740;23.340;2022-12-07T10:04:14;33.53;;;20.95;;
39936;SDS011;27803;42.740;23.340;2022-12-07T10:06:43;45.70;;;29.08;;
39936;SDS011;27803;42.740;23.340;2022-12-07T10:09:12;45.28;;;29.83;;
39936;SDS011;27803;42.740;23.340;2022-12-07T10:14:52;30.00;;;20.10;;
39936;SDS011;27803;42.740;23.340;2022-12-07T10:23:03;34.28;;;20.55;;
39936;SDS011;27803;42.740;23.340;2022-12-07T10:25:31;149.70;;;74.97;;
39936;SDS011;27803;42.740;23.340;2022-12-07T10:30:33;27.85;;;18.08;;
39936;SDS011;27803;42.740;23.340;2022-12-07T10:35:55;45.58;;;22.52;;
39936;SDS011;27803;42.740;23.340;2022-12-07T10:38:26;42.30;;;23.70;;
39936;SDS011;27803;42.740;23.340;2022-12-07T10:41:11;30.70;;;18.85;;
39936;SDS011;27803;42.740;23.340;2022-12-07T10:43:36;27.70;;;17.77;;
39936;SDS011;27803;42.740;23.340;2022-12-07T10:54:41;31.25;;;21.27;;
39936;SDS011;27803;42.740;23.340;2022-12-07T11:00:19;32.15;;;19.45;;
39936;SDS011;27803;42.740;23.340;2022-12-07T11:11:16;27.50;;;16.35;;
39936;SDS011;27803;42.740;23.340;2022-12-07T11:34:21;23.20;;;16.60;;
39936;SDS011;27803;42.740;23.340;2022-12-07T11:37:02;25.63;;;16.55;;
39936;SDS011;27803;42.740;23.340;2022-12-07T11:45:30;28.15;;;17.70;;
39936;SDS011;27803;42.740;23.340;2022-12-07T11:48:02;36.80;;;22.63;;
39936;SDS011;27803;42.740;23.340;2022-12-07T11:50:41;31.42;;;18.83;;
39936;SDS011;27803;42.740;23.340;2022-12-07T11:53:14;23.05;;;15.50;;
39936;SDS011;27803;42.740;23.340;2022-12-07T12:00:56;25.55;;;16.63;;
39936;SDS011;27803;42.740;23.340;2022-12-07T12:03:43;36.47;;;23.77;;
39936;SDS011;27803;42.740;23.340;2022-12-07T12:06:11;20.58;;;13.98;;
39936;SDS011;27803;42.740;23.340;2022-12-07T12:20:03;20.58;;;14.77;;
39936;SDS011;27803;42.740;23.340;2022-12-07T12:22:38;22.73;;;14.52;;
39936;SDS011;27803;42.740;23.340;2022-12-07T12:25:12;22.38;;;14.45;;
39936;SDS011;27803;42.740;23.340;2022-12-07T12:27:48;20.65;;;14.02;;
39936;SDS011;27803;42.740;23.340;2022-12-07T12:32:50;23.15;;;15.32;;
39936;SDS011;27803;42.740;23.340;2022-12-07T12:37:52;26.63;;;16.30;;
39936;SDS011;27803;42.740;23.340;2022-12-07T12:50:23;22.73;;;16.88;;
39936;SDS011;27803;42.740;23.340;2022-12-07T12:53:00;23.80;;;17.08;;
39936;SDS011;27803;42.740;23.340;2022-12-07T13:00:47;17.25;;;12.80;;
39936;SDS011;27803;42.740;23.340;2022-12-07T13:03:32;26.48;;;18.58;;
39936;SDS011;27803;42.740;23.340;2022-12-07T13:06:18;19.85;;;13.25;;
39936;SDS011;27803;42.740;23.340;2022-12-07T13:08:49;19.48;;;12.85;;
39936;SDS011;27803;42.740;23.340;2022-12-07T13:11:17;31.20;;;25.20;;
39936;SDS011;27803;42.740;23.340;2022-12-07T13:13:45;22.15;;;13.98;;
39936;SDS011;27803;42.740;23.340;2022-12-07T13:18:36;22.98;;;15.75;;
39936;SDS011;27803;42.740;23.340;2022-12-07T13:28:52;33.85;;;22.52;;
39936;SDS011;27803;42.740;23.340;2022-12-07T13:32:17;34.38;;;19.10;;
39936;SDS011;27803;42.740;23.340;2022-12-07T13:34:36;33.83;;;22.80;;
39936;SDS011;27803;42.740;23.340;2022-12-07T13:37:13;29.08;;;19.20;;
39936;SDS011;27803;42.740;23.340;2022-12-07T13:44:53;30.70;;;21.63;;
39936;SDS011;27803;42.740;23.340;2022-12-07T13:47:32;40.30;;;28.55;;
39936;SDS011;27803;42.740;23.340;2022-12-07T13:50:51;37.08;;;27.27;;
39936;SDS011;27803;42.740;23.340;2022-12-07T13:52:49;42.28;;;26.65;;
39936;SDS011;27803;42.740;23.340;2022-12-07T13:55:15;52.05;;;33.00;;
39936;SDS011;27803;42.740;23.340;2022-12-07T13:57:42;45.30;;;27.73;;
39936;SDS011;27803;42.740;23.340;2022-12-07T14:00:14;34.80;;;26.42;;
39936;SDS011;27803;42.740;23.340;2022-12-07T14:05:24;45.63;;;31.90;;
39936;SDS011;27803;42.740;23.340;2022-12-07T14:07:57;113.20;;;78.47;;
39936;SDS011;27803;42.740;23.340;2022-12-07T14:10:31;53.78;;;34.45;;
39936;SDS011;27803;42.740;23.340;2022-12-07T14:12:58;35.85;;;23.73;;
39936;SDS011;27803;42.740;23.340;2022-12-07T14:15:28;34.38;;;22.73;;
39936;SDS011;27803;42.740;23.340;2022-12-07T14:17:56;73.85;;;45.53;;
39936;SDS011;27803;42.740;23.340;2022-12-07T14:22:58;82.53;;;54.15;;
39936;SDS011;27803;42.740;23.340;2022-12-07T14:25:24;32.78;;;23.75;;
39936;SDS011;27803;42.740;23.340;2022-12-07T14:27:55;26.65;;;18.75;;
39936;SDS011;27803;42.740;23.340;2022-12-07T14:30:27;23.05;;;16.00;;
39936;SDS011;27803;42.740;23.340;2022-12-07T14:32:58;24.25;;;17.25;;
39936;SDS011;27803;42.740;23.340;2022-12-07T14:35:25;27.40;;;19.65;;
39936;SDS011;27803;42.740;23.340;2022-12-07T14:37:52;25.67;;;18.63;;
39936;SDS011;27803;42.740;23.340;2022-12-07T14:40:19;34.17;;;22.55;;
39936;SDS011;27803;42.740;23.340;2022-12-07T14:42:46;38.50;;;24.33;;
39936;SDS011;27803;42.740;23.340;2022-12-07T14:45:19;41.58;;;26.50;;
39936;SDS011;27803;42.740;23.340;2022-12-07T14:47:46;39.15;;;25.25;;
39936;SDS011;27803;42.740;23.340;2022-12-07T14:50:13;38.92;;;27.08;;
39936;SDS011;27803;42.740;23.340;2022-12-07T14:52:41;39.05;;;25.33;;
39936;SDS011;27803;42.740;23.340;2022-12-07T14:55:13;45.55;;;29.75;;
39936;SDS011;27803;42.740;23.340;2022-12-07T14:57:41;57.00;;;35.50;;
39936;SDS011;27803;42.740;23.340;2022-12-07T15:00:08;55.78;;;34.33;;
39936;SDS011;27803;42.740;23.340;2022-12-07T15:02:38;96.38;;;56.40;;
39936;SDS011;27803;42.740;23.340;2022-12-07T15:05:03;112.32;;;70.10;;
39936;SDS011;27803;42.740;23.340;2022-12-07T15:07:28;85.85;;;50.53;;
39936;SDS011;27803;42.740;23.340;2022-12-07T15:09:54;63.47;;;39.42;;
39936;SDS011;27803;42.740;23.340;2022-12-07T15:12:19;87.20;;;51.22;;
39936;SDS011;27803;42.740;23.340;2022-12-07T15:14:45;90.68;;;51.15;;
39936;SDS011;27803;42.740;23.340;2022-12-07T15:17:11;66.28;;;38.97;;
39936;SDS011;27803;42.740;23.340;2022-12-07T15:19:39;49.38;;;30.38;;
39936;SDS011;27803;42.740;23.340;2022-12-07T15:22:05;80.88;;;46.08;;
39936;SDS011;27803;42.740;23.340;2022-12-07T15:24:30;82.50;;;49.38;;
39936;SDS011;27803;42.740;23.340;2022-12-07T15:26:56;119.07;;;65.25;;
39936;SDS011;27803;42.740;23.340;2022-12-07T15:29:21;113.07;;;62.92;;
39936;SDS011;27803;42.740;23.340;2022-12-07T15:31:48;104.67;;;55.60;;
39936;SDS011;27803;42.740;23.340;2022-12-07T15:34:14;106.80;;;64.93;;
39936;SDS011;27803;42.740;23.340;2022-12-07T15:36:39;119.32;;;66.28;;
39936;SDS011;27803;42.740;23.340;2022-12-07T15:39:05;138.20;;;75.97;;
39936;SDS011;27803;42.740;23.340;2022-12-07T15:41:30;123.70;;;71.43;;
39936;SDS011;27803;42.740;23.340;2022-12-07T15:43:56;112.37;;;65.97;;
39936;SDS011;27803;42.740;23.340;2022-12-07T15:46:40;87.10;;;56.23;;
39936;SDS011;27803;42.740;23.340;2022-12-07T15:49:14;196.83;;;105.87;;
39936;SDS011;27803;42.740;23.340;2022-12-07T15:51:41;442.60;;;216.13;;
39936;SDS011;27803;42.740;23.340;2022-12-07T15:54:29;377.60;;;173.00;;
39936;SDS011;27803;42.740;23.340;2022-12-07T15:56:54;336.93;;;154.30;;
39936;SDS011;27803;42.740;23.340;2022-12-07T15:59:21;311.87;;;140.17;;
39936;SDS011;27803;42.740;23.340;2022-12-07T16:01:47;79.47;;;39.97;;
39936;SDS011;27803;42.740;23.340;2022-12-07T16:04:12;104.93;;;53.10;;
39936;SDS011;27803;42.740;23.340;2022-12-07T16:06:37;112.07;;;54.93;;
39936;SDS011;27803;42.740;23.340;2022-12-07T16:09:04;91.20;;;48.43;;
39936;SDS011;27803;42.740;23.340;2022-12-07T16:11:30;78.50;;;42.43;;
39936;SDS011;27803;42.740;23.340;2022-12-07T16:13:55;51.07;;;33.47;;
39936;SDS011;27803;42.740;23.340;2022-12-07T16:16:21;56.63;;;35.50;;
39936;SDS011;27803;42.740;23.340;2022-12-07T16:18:47;49.23;;;31.03;;
39936;SDS011;27803;42.740;23.340;2022-12-07T16:21:14;50.97;;;32.30;;
39936;SDS011;27803;42.740;23.340;2022-12-07T16:23:40;46.47;;;30.70;;
39936;SDS011;27803;42.740;23.340;2022-12-07T16:28:35;42.30;;;25.43;;
39936;SDS011;27803;42.740;23.340;2022-12-07T16:31:05;43.57;;;27.57;;
39936;SDS011;27803;42.740;23.340;2022-12-07T16:33:36;54.70;;;31.13;;
39936;SDS011;27803;42.740;23.340;2022-12-07T16:36:03;53.50;;;32.47;;
39936;SDS011;27803;42.740;23.340;2022-12-07T16:38:31;67.03;;;41.80;;
39936;SDS011;27803;42.740;23.340;2022-12-07T16:40:57;63.43;;;40.87;;
39936;SDS011;27803;42.740;23.340;2022-12-07T16:43:22;42.73;;;24.87;;
39936;SDS011;27803;42.740;23.340;2022-12-07T16:45:48;37.30;;;25.20;;
39936;SDS011;27803;42.740;23.340;2022-12-07T16:48:14;39.47;;;23.00;;